Time;durP1;ratioP1;P1;durP2;ratioP2;P2;SDS_P1;SDS_P2;PMS_P1;PMS_P2;Temp;Humidity;BMP_temperature;BMP_pressure;BME280_temperature;BME280_humidity;BME280_pressure;Samples;Min_cycle;Max_cycle;Signal;HPM_P1;HPM_P2
2023/02/19 03:36:45;;;;;;;3.00;2.22;;;;;;;;;;5131833;27;20527;-94
2023/02/19 03:39:14;;;;;;;6.15;2.63;;;;;;;;;;5120470;27;20042;-94
2023/02/19 03:41:43;;;;;;;2.95;2.40;;;;;;;;;;5122164;27;20453;-96
2023/02/19 03:44:27;;;;;;;3.15;2.33;;;;;;;;;;5121170;27;20030;-95
2023/02/19 03:46:57;;;;;;;3.08;2.53;;;;;;;;;;5121160;27;20419;-95
2023/02/19 03:49:27;;;;;;;3.78;2.20;;;;;;;;;;5121568;27;20015;-95
2023/02/19 03:51:55;;;;;;;5.03;2.97;;;;;;;;;;5121578;27;20031;-94
2023/02/19 03:54:28;;;;;;;3.90;2.80;;;;;;;;;;5121570;27;20015;-95
2023/02/19 03:57:04;;;;;;;7.53;5.90;;;;;;;;;;5121477;27;20020;-96
2023/02/19 03:59:34;;;;;;;9.65;5.97;;;;;;;;;;5121192;27;20043;-94
2023/02/19 04:02:04;;;;;;;8.07;6.15;;;;;;;;;;5121526;27;20015;-96
2023/02/19 04:04:32;;;;;;;8.32;5.28;;;;;;;;;;5120020;27;20039;-95
2023/02/19 04:06:59;;;;;;;9.38;5.53;;;;;;;;;;5120349;27;20027;-93
2023/02/19 04:09:28;;;;;;;6.78;5.50;;;;;;;;;;5121505;27;20387;-95
2023/02/19 04:11:54;;;;;;;7.60;5.43;;;;;;;;;;5120709;27;20465;-95
2023/02/19 04:14:24;;;;;;;6.90;4.53;;;;;;;;;;5119360;27;20385;-94
2023/02/19 04:16:54;;;;;;;5.57;4.28;;;;;;;;;;5120645;27;20377;-94
2023/02/19 04:22:42;;;;;;;5.13;3.65;;;;;;;;;;5097010;28;20085;-96
2023/02/19 04:25:09;;;;;;;5.18;3.33;;;;;;;;;;5078986;28;20028;-95
2023/02/19 04:27:36;;;;;;;6.80;3.30;;;;;;;;;;5079464;28;20466;-95
2023/02/19 04:30:03;;;;;;;4.53;3.25;;;;;;;;;;5079138;28;20047;-94
2023/02/19 04:32:33;;;;;;;3.90;2.75;;;;;;;;;;5079140;28;20399;-96
2023/02/19 04:34:59;;;;;;;3.95;2.50;;;;;;;;;;5079558;28;20028;-96
2023/02/19 04:37:25;;;;;;;4.40;3.20;;;;;;;;;;5078067;28;20047;-94
2023/02/19 04:39:51;;;;;;;5.10;2.83;;;;;;;;;;5078316;28;20058;-93
2023/02/19 04:42:17;;;;;;;3.65;2.50;;;;;;;;;;5078662;28;20095;-92
2023/02/19 04:44:44;;;;;;;3.95;2.70;;;;;;;;;;5077128;28;20028;-95
2023/02/19 04:47:10;;;;;;;3.90;3.03;;;;;;;;;;5077399;28;20132;-95
2023/02/19 04:49:36;;;;;;;4.75;2.58;;;;;;;;;;5081517;28;20024;-91
2023/02/19 04:52:02;;;;;;;3.45;2.47;;;;;;;;;;5119009;28;20484;-93
2023/02/19 04:54:31;;;;;;;2.80;2.35;;;;;;;;;;5120448;28;20034;-93
2023/02/19 04:56:58;;;;;;;3.92;2.42;;;;;;;;;;5119096;28;20080;-92
2023/02/19 04:59:24;;;;;;;3.58;2.70;;;;;;;;;;5119445;28;20392;-94
2023/02/19 05:01:50;;;;;;;4.30;2.60;;;;;;;;;;5119770;28;20046;-95
2023/02/19 05:04:16;;;;;;;3.08;2.60;;;;;;;;;;5120555;28;20057;-94
2023/02/19 05:06:43;;;;;;;4.97;3.10;;;;;;;;;;5119367;28;20023;-95
2023/02/19 05:09:09;;;;;;;3.65;2.70;;;;;;;;;;5119356;28;20098;-94
2023/02/19 05:11:35;;;;;;;5.55;3.10;;;;;;;;;;5120174;28;20015;-94
2023/02/19 05:14:01;;;;;;;3.28;2.70;;;;;;;;;;5118622;28;20476;-93
2023/02/19 05:16:28;;;;;;;4.13;3.05;;;;;;;;;;5120941;27;20211;-94
2023/02/19 05:19:06;;;;;;;4.90;2.75;;;;;;;;;;5124497;27;20030;-95
2023/02/19 05:21:34;;;;;;;4.47;2.80;;;;;;;;;;5124548;27;20023;-94
2023/02/19 05:24:00;;;;;;;4.47;2.65;;;;;;;;;;5123970;27;20038;-94
2023/02/19 05:26:27;;;;;;;4.18;2.97;;;;;;;;;;5123280;27;20008;-93
2023/02/19 05:28:54;;;;;;;3.22;2.85;;;;;;;;;;5122998;27;20087;-96
2023/02/19 05:31:20;;;;;;;4.93;3.00;;;;;;;;;;5123011;27;20053;-94
2023/02/19 05:33:49;;;;;;;3.13;2.70;;;;;;;;;;5124021;27;20073;-95
2023/02/19 05:36:16;;;;;;;4.78;2.50;;;;;;;;;;5123583;27;20043;-94
2023/02/19 05:38:42;;;;;;;4.28;2.58;;;;;;;;;;5122922;27;20031;-95
2023/02/19 05:41:13;;;;;;;4.60;3.00;;;;;;;;;;5123946;27;20405;-95
2023/02/19 05:43:40;;;;;;;3.72;2.90;;;;;;;;;;5122959;27;20053;-95
2023/02/19 05:46:07;;;;;;;4.15;2.90;;;;;;;;;;5123963;27;20019;-96
2023/02/19 05:48:36;;;;;;;3.70;2.58;;;;;;;;;;5124883;27;20055;-96
2023/02/19 05:51:10;;;;;;;5.30;2.97;;;;;;;;;;5124360;27;20023;-96
2023/02/19 05:53:37;;;;;;;5.80;2.90;;;;;;;;;;5122787;27;20019;-96
2023/02/19 05:56:05;;;;;;;4.78;2.97;;;;;;;;;;5123722;27;20036;-95
2023/02/19 05:58:32;;;;;;;5.28;2.88;;;;;;;;;;5122797;27;20054;-95
2023/02/19 06:00:58;;;;;;;4.25;2.70;;;;;;;;;;5123767;27;20015;-95
2023/02/19 06:03:24;;;;;;;3.28;2.78;;;;;;;;;;5124100;27;20015;-95
2023/02/19 06:05:50;;;;;;;5.28;2.85;;;;;;;;;;5123450;27;20019;-96
2023/02/19 06:08:17;;;;;;;4.65;2.65;;;;;;;;;;5122713;27;20019;-95
2023/02/19 06:10:43;;;;;;;3.15;2.40;;;;;;;;;;5124201;27;20031;-95
2023/02/19 06:13:10;;;;;;;7.85;3.67;;;;;;;;;;5123776;27;20027;-94
2023/02/19 06:15:37;;;;;;;4.20;3.20;;;;;;;;;;5141352;27;20038;-95
2023/02/19 06:18:04;;;;;;;4.28;2.28;;;;;;;;;;5124661;27;20034;-96
2023/02/19 06:20:35;;;;;;;9.75;3.58;;;;;;;;;;5124425;27;20024;-94
2023/02/19 06:23:01;;;;;;;4.40;3.40;;;;;;;;;;5124076;27;20039;-95
2023/02/19 06:25:28;;;;;;;4.13;3.47;;;;;;;;;;5124996;27;20053;-95
2023/02/19 06:27:54;;;;;;;7.93;3.97;;;;;;;;;;5124002;27;20019;-94
2023/02/19 06:30:20;;;;;;;5.95;3.55;;;;;;;;;;5124831;27;20034;-94
2023/02/19 06:32:46;;;;;;;6.90;3.80;;;;;;;;;;5124676;27;20003;-94
2023/02/19 06:35:13;;;;;;;4.28;3.58;;;;;;;;;;5126780;27;20026;-95
2023/02/19 06:37:48;;;;;;;8.13;3.20;;;;;;;;;;5123731;27;20046;-95
2023/02/19 06:40:14;;;;;;;6.80;2.95;;;;;;;;;;5123911;27;20055;-94
2023/02/19 06:42:41;;;;;;;5.53;3.38;;;;;;;;;;5124617;27;20031;-96
2023/02/19 06:45:07;;;;;;;6.85;3.60;;;;;;;;;;5124421;27;20043;-94
2023/02/19 06:47:34;;;;;;;5.68;3.67;;;;;;;;;;5123381;27;20031;-96
2023/02/19 06:50:00;;;;;;;3.50;3.10;;;;;;;;;;5124095;27;20114;-95
2023/02/19 06:52:27;;;;;;;4.38;3.25;;;;;;;;;;5124196;27;20019;-94
2023/02/19 06:54:53;;;;;;;4.50;3.35;;;;;;;;;;5123524;27;20110;-96
2023/02/19 06:57:19;;;;;;;6.13;3.65;;;;;;;;;;5123604;27;20035;-95
2023/02/19 06:59:46;;;;;;;5.22;3.63;;;;;;;;;;5123285;27;20019;-95
2023/02/19 07:02:16;;;;;;;4.68;3.67;;;;;;;;;;5123992;27;20023;-96
2023/02/19 07:04:45;;;;;;;4.72;3.58;;;;;;;;;;5123665;27;20031;-96
2023/02/19 07:07:11;;;;;;;8.32;3.80;;;;;;;;;;5122620;27;20029;-96
2023/02/19 07:09:37;;;;;;;5.82;3.80;;;;;;;;;;5124644;27;20434;-95
2023/02/19 07:12:04;;;;;;;5.18;3.65;;;;;;;;;;5123320;27;20026;-96
2023/02/19 07:14:30;;;;;;;6.13;4.63;;;;;;;;;;5122646;27;20030;-96
2023/02/19 07:16:56;;;;;;;12.25;5.32;;;;;;;;;;5122874;27;20027;-95
2023/02/19 07:19:25;;;;;;;6.38;4.80;;;;;;;;;;5122560;27;20034;-96
2023/02/19 07:21:51;;;;;;;8.35;5.22;;;;;;;;;;5122629;27;20023;-95
2023/02/19 07:24:20;;;;;;;6.38;5.25;;;;;;;;;;5122289;27;20015;-95
2023/02/19 07:26:46;;;;;;;7.07;5.30;;;;;;;;;;5122904;27;20035;-94
2023/02/19 07:29:15;;;;;;;6.90;5.28;;;;;;;;;;5123955;27;20027;-96
2023/02/19 07:31:42;;;;;;;8.40;6.30;;;;;;;;;;5121869;27;20126;-96
2023/02/19 07:37:12;;;;;;;11.77;9.07;;;;;;;;;;5138742;27;20046;-95
2023/02/19 07:39:38;;;;;;;12.23;9.43;;;;;;;;;;5122159;27;20039;-95
2023/02/19 07:42:05;;;;;;;12.77;10.75;;;;;;;;;;5121178;27;20022;-94
2023/02/19 07:44:31;;;;;;;14.32;10.40;;;;;;;;;;5123420;27;20028;-93
2023/02/19 07:46:57;;;;;;;9.60;7.43;;;;;;;;;;5122314;27;20074;-94
2023/02/19 07:49:23;;;;;;;8.35;5.88;;;;;;;;;;5121895;27;20026;-95
2023/02/19 07:51:50;;;;;;;6.68;4.35;;;;;;;;;;5120249;27;20113;-93
2023/02/19 07:54:16;;;;;;;5.03;4.03;;;;;;;;;;5121586;27;20023;-95
2023/02/19 07:56:42;;;;;;;6.28;4.40;;;;;;;;;;5125340;27;20095;-96
2023/02/19 07:59:09;;;;;;;15.32;8.00;;;;;;;;;;5121349;27;20067;-93
2023/02/19 12:54:02;;;;;;;6.07;4.82;;;;;;;;;;5137365;22;20530;-84
2023/02/19 12:56:30;;;;;;;6.38;5.00;;;;;;;;;;5071361;28;20040;-83
2023/02/19 12:59:01;;;;;;;6.32;4.40;;;;;;;;;;5076698;28;20035;-85
2023/02/19 13:01:30;;;;;;;4.85;4.05;;;;;;;;;;5076022;28;20039;-86
2023/02/19 13:04:14;;;;;;;4.85;3.92;;;;;;;;;;5071686;28;20280;-86
2023/02/19 13:07:04;;;;;;;5.32;3.92;;;;;;;;;;5069066;28;20031;-86
2023/02/19 13:09:36;;;;;;;7.03;4.60;;;;;;;;;;5060186;28;20032;-85
2023/02/19 13:12:23;;;;;;;5.93;4.85;;;;;;;;;;5076120;28;20024;-86
2023/02/19 13:15:16;;;;;;;7.05;4.43;;;;;;;;;;5072357;28;20030;-85
2023/02/19 13:17:50;;;;;;;5.05;4.15;;;;;;;;;;5068275;28;20059;-86
2023/02/19 13:20:26;;;;;;;11.30;4.10;;;;;;;;;;5078820;28;20059;-85
2023/02/19 13:26:08;;;;;;;4.80;3.72;;;;;;;;;;5075634;28;20075;-86
2023/02/19 13:28:37;;;;;;;5.57;4.10;;;;;;;;;;5078613;28;20535;-85
2023/02/19 13:31:06;;;;;;;6.32;4.10;;;;;;;;;;5089834;28;20185;-86
2023/02/19 13:33:39;;;;;;;5.28;3.60;;;;;;;;;;5079760;28;20440;-87
2023/02/19 13:36:10;;;;;;;4.32;3.88;;;;;;;;;;5092997;28;20266;-87
2023/02/19 13:38:38;;;;;;;4.70;3.95;;;;;;;;;;5081468;28;20066;-86
2023/02/19 13:41:04;;;;;;;4.43;3.55;;;;;;;;;;5098294;28;20032;-85
2023/02/19 13:43:37;;;;;;;4.20;3.63;;;;;;;;;;5076374;28;20134;-87
2023/02/19 13:46:04;;;;;;;4.85;3.75;;;;;;;;;;5080186;28;20063;-85
2023/02/19 13:48:31;;;;;;;4.88;3.80;;;;;;;;;;5081960;28;20089;-86
2023/02/19 13:51:30;;;;;;;5.03;4.18;;;;;;;;;;5080624;28;20035;-86
2023/02/19 13:53:56;;;;;;;7.60;4.00;;;;;;;;;;5035647;28;20040;-84
2023/02/19 13:56:32;;;;;;;4.93;3.90;;;;;;;;;;5076203;28;20040;-86
2023/02/19 13:59:18;;;;;;;4.22;3.60;;;;;;;;;;5096708;28;20036;-86
2023/02/19 14:01:50;;;;;;;7.22;4.18;;;;;;;;;;5071402;28;20110;-84
2023/02/19 14:04:22;;;;;;;4.95;4.13;;;;;;;;;;5077923;28;20110;-84
2023/02/19 14:07:04;;;;;;;6.88;4.00;;;;;;;;;;5075396;28;20143;-86
2023/02/19 14:09:36;;;;;;;5.80;4.38;;;;;;;;;;5078772;28;20115;-85
2023/02/19 14:12:02;;;;;;;5.60;4.18;;;;;;;;;;5081762;28;20428;-86
2023/02/19 14:14:31;;;;;;;5.68;4.30;;;;;;;;;;5082153;28;20557;-86
2023/02/19 14:17:03;;;;;;;6.70;4.22;;;;;;;;;;5082123;28;20020;-85
2023/02/19 14:19:41;;;;;;;9.45;4.93;;;;;;;;;;5111499;27;20102;-86
2023/02/19 14:22:27;;;;;;;5.55;4.03;;;;;;;;;;5071311;28;20498;-85
2023/02/19 14:24:53;;;;;;;5.03;3.90;;;;;;;;;;5084801;28;20021;-86
2023/02/19 14:27:20;;;;;;;6.00;4.70;;;;;;;;;;5079561;28;20024;-85
2023/02/19 14:29:47;;;;;;;5.30;3.78;;;;;;;;;;5078768;28;20028;-86
2023/02/19 14:32:17;;;;;;;4.63;3.70;;;;;;;;;;5080734;28;20421;-87
2023/02/19 14:34:47;;;;;;;5.53;3.63;;;;;;;;;;5080918;28;20056;-87
2023/02/19 14:37:17;;;;;;;7.93;3.78;;;;;;;;;;5078884;28;20437;-84
2023/02/19 14:39:44;;;;;;;16.63;4.65;;;;;;;;;;5076325;28;20032;-87
2023/02/19 14:42:22;;;;;;;5.40;3.65;;;;;;;;;;5080703;28;20128;-86
2023/02/19 14:44:56;;;;;;;4.93;3.83;;;;;;;;;;5091956;28;20028;-84
2023/02/19 14:47:23;;;;;;;4.32;3.58;;;;;;;;;;5079391;28;20089;-85
2023/02/19 14:49:54;;;;;;;5.70;3.95;;;;;;;;;;5071942;28;20572;-84
2023/02/19 14:52:27;;;;;;;4.88;3.65;;;;;;;;;;5077682;28;20058;-85
2023/02/19 14:55:03;;;;;;;4.78;4.30;;;;;;;;;;5073149;28;20058;-85
2023/02/19 14:57:35;;;;;;;4.82;3.70;;;;;;;;;;5092476;28;20028;-85
2023/02/19 15:00:06;;;;;;;6.90;3.90;;;;;;;;;;5092496;28;20024;-84
2023/02/19 15:02:42;;;;;;;4.43;3.70;;;;;;;;;;5067826;28;20418;-85
2023/02/19 15:05:17;;;;;;;5.45;3.70;;;;;;;;;;5069253;28;20482;-83
2023/02/19 15:07:43;;;;;;;4.53;3.70;;;;;;;;;;5068687;28;20101;-84
2023/02/19 15:10:12;;;;;;;4.72;3.47;;;;;;;;;;5071792;28;20031;-84
2023/02/19 15:12:51;;;;;;;4.53;3.33;;;;;;;;;;5075785;28;20161;-83
2023/02/19 15:15:28;;;;;;;6.00;3.95;;;;;;;;;;5073255;28;20023;-84
2023/02/19 15:17:55;;;;;;;3.85;3.45;;;;;;;;;;5071015;28;20547;-85
2023/02/19 15:20:26;;;;;;;5.93;3.80;;;;;;;;;;5079334;28;20028;-84
2023/02/19 15:22:53;;;;;;;4.88;3.80;;;;;;;;;;5064768;28;20042;-84
2023/02/19 15:25:20;;;;;;;6.07;3.30;;;;;;;;;;5092130;28;20031;-84
2023/02/19 15:27:47;;;;;;;8.15;3.80;;;;;;;;;;5071398;28;20077;-85
2023/02/19 15:30:31;;;;;;;8.63;3.75;;;;;;;;;;5077627;28;20448;-84
2023/02/19 15:32:59;;;;;;;4.75;3.42;;;;;;;;;;5070476;28;20063;-82
2023/02/19 15:35:26;;;;;;;5.25;3.78;;;;;;;;;;5079540;28;20030;-85
2023/02/19 15:37:54;;;;;;;10.23;3.75;;;;;;;;;;5079866;28;20465;-86
2023/02/19 15:40:22;;;;;;;4.38;3.40;;;;;;;;;;5079213;28;20036;-85
2023/02/19 15:42:48;;;;;;;5.03;3.63;;;;;;;;;;5076141;28;20024;-85
2023/02/19 15:45:41;;;;;;;3.92;3.47;;;;;;;;;;5075684;28;20052;-85
2023/02/19 15:48:14;;;;;;;5.85;3.78;;;;;;;;;;5078613;28;20082;-84
2023/02/19 15:50:43;;;;;;;5.78;3.55;;;;;;;;;;5077740;28;20603;-84
2023/02/19 15:53:12;;;;;;;5.63;3.35;;;;;;;;;;5080026;28;20047;-84
2023/02/19 15:55:38;;;;;;;5.40;3.72;;;;;;;;;;5075392;28;20134;-85
2023/02/19 15:58:20;;;;;;;4.85;3.55;;;;;;;;;;5073743;28;20086;-85
2023/02/19 16:00:49;;;;;;;4.57;3.65;;;;;;;;;;5074559;28;20324;-85
2023/02/19 16:03:19;;;;;;;5.57;3.78;;;;;;;;;;5079498;28;20025;-85
2023/02/19 16:05:46;;;;;;;5.43;3.58;;;;;;;;;;5094852;28;20061;-86
2023/02/19 16:08:12;;;;;;;4.97;3.75;;;;;;;;;;5067390;28;20405;-86
2023/02/19 16:10:39;;;;;;;5.32;3.40;;;;;;;;;;5072881;28;20125;-85
2023/02/19 16:13:07;;;;;;;4.63;3.58;;;;;;;;;;5070107;28;20024;-86
2023/02/19 16:15:33;;;;;;;5.07;3.95;;;;;;;;;;5076491;28;20036;-85
2023/02/19 16:18:00;;;;;;;8.85;4.32;;;;;;;;;;5076038;28;20024;-84
2023/02/19 16:20:28;;;;;;;5.22;4.18;;;;;;;;;;5077307;28;20119;-85
2023/02/19 16:22:59;;;;;;;8.10;4.03;;;;;;;;;;5070810;28;20254;-85
2023/02/19 16:25:29;;;;;;;4.90;3.97;;;;;;;;;;5077004;28;20516;-85
2023/02/19 16:27:55;;;;;;;5.88;4.07;;;;;;;;;;5078580;28;20126;-86
2023/02/19 16:30:25;;;;;;;5.75;4.20;;;;;;;;;;5078917;28;20106;-86
2023/02/19 16:33:10;;;;;;;5.47;4.43;;;;;;;;;;5068548;28;20028;-85
2023/02/19 16:35:38;;;;;;;5.45;4.28;;;;;;;;;;5077965;28;20039;-85
2023/02/19 16:38:12;;;;;;;6.40;4.70;;;;;;;;;;5074085;28;20028;-85
2023/02/19 16:40:45;;;;;;;5.43;4.22;;;;;;;;;;5090636;28;20059;-85
2023/02/19 16:43:14;;;;;;;6.15;4.60;;;;;;;;;;5071166;28;20024;-86
2023/02/19 16:45:41;;;;;;;6.97;4.38;;;;;;;;;;5078642;28;20349;-84
2023/02/19 16:48:07;;;;;;;7.10;4.40;;;;;;;;;;5071484;28;20119;-85
2023/02/19 16:50:34;;;;;;;5.95;4.63;;;;;;;;;;5077378;28;20028;-85
2023/02/19 16:53:01;;;;;;;5.93;4.63;;;;;;;;;;5072556;28;20051;-85
2023/02/19 16:55:28;;;;;;;6.55;4.40;;;;;;;;;;5077181;28;20052;-85
2023/02/19 16:57:54;;;;;;;6.95;5.30;;;;;;;;;;5073054;28;20044;-86
2023/02/19 17:00:20;;;;;;;6.15;4.80;;;;;;;;;;5077407;28;20052;-87
2023/02/19 17:02:51;;;;;;;6.25;5.10;;;;;;;;;;5078011;28;20066;-85
2023/02/19 17:05:18;;;;;;;7.72;5.03;;;;;;;;;;5091019;28;20107;-85
2023/02/19 17:07:45;;;;;;;7.30;5.00;;;;;;;;;;5077589;28;20070;-84
2023/02/19 17:10:13;;;;;;;7.57;5.13;;;;;;;;;;5071188;28;20119;-86
2023/02/19 17:12:40;;;;;;;9.75;5.07;;;;;;;;;;5079109;28;20093;-85
2023/02/19 17:15:06;;;;;;;7.97;4.68;;;;;;;;;;5079331;28;20131;-84
2023/02/19 17:17:33;;;;;;;11.35;5.20;;;;;;;;;;5082614;28;20016;-87
2023/02/19 17:19:59;;;;;;;6.47;4.65;;;;;;;;;;5078830;28;20081;-85
2023/02/19 17:22:26;;;;;;;7.30;5.20;;;;;;;;;;5081720;28;20103;-87
2023/02/19 17:24:53;;;;;;;5.95;4.45;;;;;;;;;;5079100;28;20089;-86
2023/02/19 17:27:20;;;;;;;6.70;5.13;;;;;;;;;;5078343;28;20081;-86
2023/02/19 17:29:46;;;;;;;6.68;4.80;;;;;;;;;;5082967;28;20055;-86
2023/02/19 17:32:13;;;;;;;8.15;5.57;;;;;;;;;;5082643;28;20024;-87
2023/02/19 17:34:39;;;;;;;6.10;4.80;;;;;;;;;;5079617;28;20024;-87
2023/02/19 17:37:05;;;;;;;7.97;5.70;;;;;;;;;;5081841;28;20020;-87
2023/02/19 17:39:31;;;;;;;8.63;5.40;;;;;;;;;;5079803;28;20078;-87
2023/02/19 17:41:58;;;;;;;9.43;5.80;;;;;;;;;;5077223;28;20047;-87
2023/02/19 17:44:24;;;;;;;7.72;5.60;;;;;;;;;;5078163;28;20459;-85
2023/02/19 17:46:50;;;;;;;7.55;5.95;;;;;;;;;;5081950;28;20464;-85
2023/02/19 17:49:16;;;;;;;7.72;5.72;;;;;;;;;;5082726;28;20463;-85
2023/02/19 17:51:42;;;;;;;9.85;5.43;;;;;;;;;;5080997;28;20038;-87
2023/02/19 17:54:09;;;;;;;7.57;5.72;;;;;;;;;;5078577;28;20047;-87
2023/02/19 17:56:35;;;;;;;8.15;5.78;;;;;;;;;;5079631;28;20036;-85
2023/02/19 17:59:01;;;;;;;8.73;6.18;;;;;;;;;;5080533;28;20504;-87
2023/02/19 18:01:28;;;;;;;9.35;5.93;;;;;;;;;;5077266;28;20403;-85
2023/02/19 18:03:54;;;;;;;7.22;5.63;;;;;;;;;;5080489;28;20024;-86
2023/02/19 18:06:20;;;;;;;9.00;5.93;;;;;;;;;;5081181;28;20124;-87
2023/02/19 18:08:51;;;;;;;9.15;5.80;;;;;;;;;;5082508;28;20035;-89
2023/02/19 18:11:17;;;;;;;7.30;5.82;;;;;;;;;;5079121;28;20511;-87
2023/02/19 18:13:44;;;;;;;9.38;5.55;;;;;;;;;;5080402;28;20111;-87
2023/02/19 18:16:10;;;;;;;9.57;5.90;;;;;;;;;;5081117;28;20035;-88
2023/02/19 18:18:37;;;;;;;7.53;5.55;;;;;;;;;;5080769;28;20154;-87
2023/02/19 18:21:03;;;;;;;6.82;5.53;;;;;;;;;;5081687;28;20116;-88
2023/02/19 18:23:30;;;;;;;11.13;5.40;;;;;;;;;;5077463;28;20077;-88
2023/02/19 18:25:56;;;;;;;10.05;5.43;;;;;;;;;;5082808;28;20302;-87
2023/02/19 18:28:22;;;;;;;8.07;5.50;;;;;;;;;;5076947;28;20081;-89
2023/02/19 18:30:48;;;;;;;9.23;4.85;;;;;;;;;;5084215;28;20058;-88
2023/02/19 18:33:14;;;;;;;7.55;5.60;;;;;;;;;;5084032;28;20023;-88
2023/02/19 18:35:40;;;;;;;7.28;5.43;;;;;;;;;;5080931;28;20034;-87
2023/02/19 18:38:07;;;;;;;7.65;5.55;;;;;;;;;;5083713;28;20029;-87
2023/02/19 18:40:33;;;;;;;7.85;5.93;;;;;;;;;;5079057;28;20111;-88
2023/02/19 18:42:59;;;;;;;7.97;6.00;;;;;;;;;;5071646;28;20024;-88
2023/02/19 18:45:28;;;;;;;7.30;5.50;;;;;;;;;;5071874;28;20112;-88
2023/02/19 18:47:54;;;;;;;8.88;5.93;;;;;;;;;;5079751;28;20028;-87
2023/02/19 18:50:20;;;;;;;10.95;5.88;;;;;;;;;;5092156;28;20084;-87
2023/02/19 18:52:47;;;;;;;8.80;6.03;;;;;;;;;;5076764;28;20028;-87
2023/02/19 18:55:16;;;;;;;7.45;5.60;;;;;;;;;;5070251;28;20461;-88
2023/02/19 18:57:43;;;;;;;9.07;5.70;;;;;;;;;;5078551;28;20148;-87
2023/02/19 19:00:09;;;;;;;8.00;5.68;;;;;;;;;;5080932;28;20489;-88
2023/02/19 19:02:35;;;;;;;11.93;6.10;;;;;;;;;;5082271;28;20264;-88
2023/02/19 19:05:02;;;;;;;7.88;5.63;;;;;;;;;;5073065;28;20051;-88
2023/02/19 19:07:28;;;;;;;8.60;5.60;;;;;;;;;;5072634;28;20575;-88
2023/02/19 19:09:54;;;;;;;7.70;5.55;;;;;;;;;;5081442;28;20021;-89
2023/02/19 19:12:20;;;;;;;6.97;4.65;;;;;;;;;;5076546;28;20119;-88
2023/02/19 19:14:46;;;;;;;9.30;5.72;;;;;;;;;;5081054;28;20557;-90
2023/02/19 19:17:13;;;;;;;7.35;5.28;;;;;;;;;;5081335;28;20319;-89
2023/02/19 19:19:40;;;;;;;6.97;5.40;;;;;;;;;;5080953;28;20035;-89
2023/02/19 19:22:06;;;;;;;7.25;5.28;;;;;;;;;;5081851;28;20031;-87
2023/02/19 19:24:32;;;;;;;8.45;5.82;;;;;;;;;;5081065;28;20029;-87
2023/02/19 19:26:58;;;;;;;7.65;5.63;;;;;;;;;;5080988;28;20513;-88
2023/02/19 19:29:24;;;;;;;7.97;5.75;;;;;;;;;;5079545;28;20259;-87
2023/02/19 19:31:51;;;;;;;8.90;6.57;;;;;;;;;;5080888;28;20161;-87
2023/02/19 19:34:17;;;;;;;9.43;5.18;;;;;;;;;;5077360;28;20096;-87
2023/02/19 19:36:44;;;;;;;8.38;5.32;;;;;;;;;;5080003;28;20097;-86
2023/02/19 19:39:10;;;;;;;10.38;5.53;;;;;;;;;;5073582;28;20055;-87
2023/02/19 19:41:36;;;;;;;8.15;6.05;;;;;;;;;;5075582;28;20103;-86
2023/02/19 19:44:04;;;;;;;13.90;5.43;;;;;;;;;;5105292;27;20029;-86
2023/02/19 19:46:30;;;;;;;7.40;5.35;;;;;;;;;;5076418;28;20131;-86
2023/02/19 19:48:56;;;;;;;11.82;5.95;;;;;;;;;;5080547;28;20032;-87
2023/02/19 19:51:22;;;;;;;8.70;6.18;;;;;;;;;;5081325;28;20164;-88
2023/02/19 19:53:49;;;;;;;8.07;5.90;;;;;;;;;;5078919;28;20031;-86
2023/02/19 19:56:16;;;;;;;10.55;6.05;;;;;;;;;;5073318;28;20174;-86
2023/02/19 19:58:42;;;;;;;10.93;6.30;;;;;;;;;;5077652;28;20146;-86
2023/02/19 20:01:08;;;;;;;9.82;6.57;;;;;;;;;;5076336;28;20139;-88
2023/02/19 20:03:34;;;;;;;9.77;6.72;;;;;;;;;;5076810;28;20494;-87
2023/02/19 20:06:00;;;;;;;10.50;6.47;;;;;;;;;;5077296;28;20020;-86
2023/02/19 20:08:27;;;;;;;9.75;5.85;;;;;;;;;;5075857;28;20031;-87
2023/02/19 20:10:53;;;;;;;13.07;6.88;;;;;;;;;;5079222;28;20026;-88
2023/02/19 20:13:25;;;;;;;10.98;6.38;;;;;;;;;;5079463;28;20028;-88
2023/02/19 20:15:51;;;;;;;10.80;6.47;;;;;;;;;;5077906;28;20425;-87
2023/02/19 20:18:18;;;;;;;9.00;6.10;;;;;;;;;;5078976;28;20035;-87
2023/02/19 20:20:44;;;;;;;8.07;5.78;;;;;;;;;;5072284;28;20380;-88
2023/02/19 20:23:10;;;;;;;8.60;5.65;;;;;;;;;;5071806;28;20028;-88
2023/02/19 20:25:36;;;;;;;8.27;5.85;;;;;;;;;;5076520;28;20556;-88
2023/02/19 20:28:03;;;;;;;8.88;6.40;;;;;;;;;;5076704;28;20039;-87
2023/02/19 20:30:29;;;;;;;11.80;5.78;;;;;;;;;;5078842;28;20029;-87
2023/02/19 20:32:55;;;;;;;8.75;5.80;;;;;;;;;;5077616;28;20060;-87
2023/02/19 20:35:24;;;;;;;7.47;5.80;;;;;;;;;;5077645;28;20331;-88
2023/02/19 20:37:50;;;;;;;10.90;6.68;;;;;;;;;;5078376;28;20035;-89
2023/02/19 20:40:17;;;;;;;11.75;6.55;;;;;;;;;;5076578;28;20040;-88
2023/02/19 20:42:43;;;;;;;8.73;5.75;;;;;;;;;;5080148;28;20042;-88
2023/02/19 20:45:09;;;;;;;8.38;6.30;;;;;;;;;;5080499;28;20714;-88
2023/02/19 20:47:38;;;;;;;8.55;5.97;;;;;;;;;;5074527;28;20199;-88
2023/02/19 20:50:05;;;;;;;10.13;6.90;;;;;;;;;;5080080;28;20091;-87
2023/02/19 20:52:31;;;;;;;8.18;5.80;;;;;;;;;;5076572;28;20154;-89
2023/02/19 20:54:57;;;;;;;8.55;6.00;;;;;;;;;;5079235;28;20162;-89
2023/02/19 20:57:23;;;;;;;10.85;6.22;;;;;;;;;;5082607;28;20066;-89
2023/02/19 20:59:50;;;;;;;11.55;6.10;;;;;;;;;;5082465;28;20031;-88
2023/02/19 21:02:19;;;;;;;8.90;6.63;;;;;;;;;;5080729;28;20496;-88
2023/02/19 21:04:47;;;;;;;7.57;5.97;;;;;;;;;;5082773;28;20119;-89
2023/02/19 21:07:13;;;;;;;11.93;6.20;;;;;;;;;;5084357;28;20056;-88
2023/02/19 21:09:39;;;;;;;10.02;5.90;;;;;;;;;;5076536;28;20112;-87
2023/02/19 21:12:05;;;;;;;11.35;5.72;;;;;;;;;;5083213;28;20386;-88
2023/02/19 21:14:32;;;;;;;8.05;5.53;;;;;;;;;;5084679;28;20020;-88
2023/02/19 21:16:58;;;;;;;8.75;6.07;;;;;;;;;;5083889;28;20085;-88
2023/02/19 21:19:24;;;;;;;8.77;6.18;;;;;;;;;;5083713;28;20039;-88
2023/02/19 21:21:50;;;;;;;9.73;6.15;;;;;;;;;;5082867;28;20024;-88
2023/02/19 21:24:17;;;;;;;11.20;6.88;;;;;;;;;;5083447;28;20036;-87
2023/02/19 21:26:43;;;;;;;14.93;7.13;;;;;;;;;;5083191;28;20024;-87
2023/02/19 21:29:13;;;;;;;9.50;6.47;;;;;;;;;;5083540;28;20028;-88
2023/02/19 21:31:49;;;;;;;11.60;7.47;;;;;;;;;;5082734;28;20055;-87
2023/02/19 21:34:17;;;;;;;10.07;7.03;;;;;;;;;;5080257;28;20183;-88
2023/02/19 21:36:44;;;;;;;9.90;6.80;;;;;;;;;;5077915;28;20020;-88
2023/02/19 21:39:12;;;;;;;8.90;6.10;;;;;;;;;;5082513;28;20032;-89
2023/02/19 21:41:38;;;;;;;10.40;6.05;;;;;;;;;;5079894;28;20048;-89
2023/02/19 21:44:04;;;;;;;7.45;6.20;;;;;;;;;;5082981;28;20035;-87
2023/02/19 21:46:32;;;;;;;8.05;5.63;;;;;;;;;;5083269;28;20131;-87
2023/02/19 21:48:58;;;;;;;11.93;7.07;;;;;;;;;;5080739;28;20473;-89
2023/02/19 21:51:29;;;;;;;9.50;6.13;;;;;;;;;;5083933;28;20153;-88
2023/02/19 21:53:56;;;;;;;9.90;6.60;;;;;;;;;;5082137;28;20035;-88
2023/02/19 21:56:23;;;;;;;11.98;6.93;;;;;;;;;;5085090;28;20040;-87
2023/02/19 21:58:49;;;;;;;9.50;6.10;;;;;;;;;;5081650;28;20040;-88
2023/02/19 22:01:19;;;;;;;9.25;6.30;;;;;;;;;;5083918;28;20051;-87
2023/02/19 22:03:45;;;;;;;11.13;6.90;;;;;;;;;;5082162;28;20024;-86
2023/02/19 22:06:12;;;;;;;9.05;6.47;;;;;;;;;;5080626;28;20146;-88
2023/02/19 22:08:38;;;;;;;10.57;7.00;;;;;;;;;;5085589;28;20024;-87
2023/02/19 22:11:04;;;;;;;10.60;7.03;;;;;;;;;;5088568;28;20103;-88
2023/02/19 22:13:30;;;;;;;10.85;6.32;;;;;;;;;;5085349;28;20509;-87
2023/02/19 22:15:56;;;;;;;8.32;6.00;;;;;;;;;;5082772;28;20032;-87
2023/02/19 22:18:23;;;;;;;12.40;5.72;;;;;;;;;;5083616;28;20036;-89
2023/02/19 22:20:49;;;;;;;7.25;5.47;;;;;;;;;;5082378;28;20055;-86
2023/02/19 22:23:15;;;;;;;9.00;5.82;;;;;;;;;;5085394;28;20030;-88
2023/02/19 22:25:41;;;;;;;9.18;6.05;;;;;;;;;;5082730;28;20292;-89
2023/02/19 22:28:07;;;;;;;9.90;6.25;;;;;;;;;;5085904;28;20039;-87
2023/02/19 22:30:36;;;;;;;8.77;5.57;;;;;;;;;;5085107;28;20478;-87
2023/02/19 22:33:03;;;;;;;10.73;6.68;;;;;;;;;;5083085;28;20032;-87
2023/02/19 22:35:29;;;;;;;8.93;6.47;;;;;;;;;;5079357;28;20070;-88
2023/02/19 22:37:55;;;;;;;10.80;6.72;;;;;;;;;;5084512;28;20068;-88
2023/02/19 22:40:21;;;;;;;8.65;5.72;;;;;;;;;;5084299;28;20530;-88
2023/02/19 22:42:48;;;;;;;14.43;6.05;;;;;;;;;;5081446;28;20627;-87
2023/02/19 22:45:14;;;;;;;10.40;6.63;;;;;;;;;;5084053;28;20036;-87
2023/02/19 22:47:42;;;;;;;10.82;6.55;;;;;;;;;;5083348;28;20024;-87
2023/02/19 22:50:09;;;;;;;9.45;6.40;;;;;;;;;;5081120;28;20024;-88
2023/02/19 22:52:35;;;;;;;11.13;7.20;;;;;;;;;;5081906;28;20044;-88
2023/02/19 22:55:01;;;;;;;7.22;6.25;;;;;;;;;;5079376;28;20045;-88
2023/02/19 22:57:27;;;;;;;8.85;6.53;;;;;;;;;;5084146;28;20054;-89
2023/02/19 22:59:56;;;;;;;9.15;6.25;;;;;;;;;;5083446;28;20028;-89
2023/02/19 23:02:23;;;;;;;9.23;6.20;;;;;;;;;;5083651;28;20016;-89
2023/02/19 23:04:49;;;;;;;8.57;6.18;;;;;;;;;;5074114;28;20046;-89
2023/02/19 23:07:15;;;;;;;8.85;6.28;;;;;;;;;;5083950;28;20023;-89
2023/02/19 23:09:41;;;;;;;10.48;6.00;;;;;;;;;;5083442;28;20179;-90
2023/02/19 23:12:09;;;;;;;10.65;6.47;;;;;;;;;;5084348;28;20506;-89
2023/02/19 23:14:35;;;;;;;9.38;5.75;;;;;;;;;;5082245;28;20522;-89
2023/02/19 23:17:01;;;;;;;8.27;5.63;;;;;;;;;;5082223;28;20149;-89
2023/02/19 23:19:28;;;;;;;9.35;5.97;;;;;;;;;;5083715;28;20108;-89
2023/02/19 23:21:54;;;;;;;6.50;5.13;;;;;;;;;;5081533;28;20020;-89
2023/02/19 23:24:20;;;;;;;9.50;5.72;;;;;;;;;;5082452;28;20246;-88